createdAt,value
2019-05-10T00:00:17.858Z,94813.98
2019-05-10T00:03:02.692Z,94821.30
2019-05-10T00:05:48.146Z,94815.45
2019-05-10T00:08:33.190Z,94815.16
2019-05-10T00:11:07.303Z,94824.89
2019-05-10T00:13:43.806Z,94826.71
2019-05-10T00:16:11.437Z,94828.55
2019-05-10T00:18:37.559Z,94830.45
2019-05-10T00:21:04.090Z,94831.51
2019-05-10T00:23:30.264Z,94836.48
2019-05-10T00:25:56.489Z,94842.75
2019-05-10T00:28:22.728Z,94846.41
2019-05-10T00:30:48.996Z,94847.05
2019-05-10T00:33:15.190Z,94843.89
2019-05-10T00:35:42.397Z,94848.67
2019-05-10T00:38:08.576Z,94845.54
2019-05-10T00:40:34.831Z,94842.94
2019-05-10T00:43:00.998Z,94844.08
2019-05-10T00:45:27.235Z,94844.15
2019-05-10T00:47:53.424Z,94846.48
2019-05-10T00:50:19.677Z,94849.62
2019-05-10T00:52:45.773Z,94854.26
2019-05-10T00:55:18.980Z,94860.25
2019-05-10T00:57:40.279Z,94852.63
2019-05-10T01:00:07.093Z,94860.75
2019-05-10T01:02:33.358Z,94865.02
2019-05-10T01:04:59.521Z,94862.94
2019-05-10T01:07:25.779Z,94863.27
2019-05-10T01:09:52.058Z,94862.44
2019-05-10T01:12:18.323Z,94861.77
2019-05-10T01:14:44.498Z,94871.00
2019-05-10T01:17:10.697Z,94870.86
2019-05-10T01:19:37.028Z,94877.98
2019-05-10T01:22:03.298Z,94882.73
2019-05-10T01:24:29.504Z,94882.05
2019-05-10T01:26:55.621Z,94888.78
2019-05-10T01:29:21.837Z,94888.47
2019-05-10T01:31:47.935Z,94892.25
2019-05-10T01:34:14.299Z,94894.06
2019-05-10T01:36:40.404Z,94897.83
2019-05-10T01:39:06.568Z,94901.00
2019-05-10T01:41:32.735Z,94895.72
2019-05-10T01:43:58.880Z,94902.31
2019-05-10T01:46:25.009Z,94901.48
2019-05-10T01:48:51.207Z,94907.91
2019-05-10T01:51:17.376Z,94906.09
2019-05-10T01:53:43.723Z,94905.56
2019-05-10T01:56:09.938Z,94907.63
2019-05-10T01:58:36.100Z,94906.50
2019-05-10T02:01:04.962Z,94908.01
2019-05-10T02:03:31.086Z,94912.34
2019-05-10T02:05:57.420Z,94912.53
2019-05-10T02:08:23.691Z,94915.69
2019-05-10T02:10:51.084Z,94918.82
2019-05-10T02:13:17.383Z,94920.64
2019-05-10T02:15:43.554Z,94923.98
2019-05-10T02:18:09.887Z,94921.95
2019-05-10T02:20:36.063Z,94923.80
2019-05-10T02:23:02.403Z,94923.64
2019-05-10T02:25:28.603Z,94933.59
2019-05-10T02:27:54.726Z,94930.58
2019-05-10T02:30:21.167Z,94929.57
2019-05-10T02:32:47.313Z,94941.08
2019-05-10T02:35:15.739Z,94934.02
2019-05-10T02:37:42.018Z,94937.37
2019-05-10T02:40:08.469Z,94944.52
2019-05-10T02:42:34.783Z,94947.16
2019-05-10T02:45:01.166Z,94945.32
2019-05-10T02:47:27.369Z,94949.80
2019-05-10T02:49:53.481Z,94947.09
2019-05-10T02:52:19.746Z,94947.09
2019-05-10T02:54:45.884Z,94953.02
2019-05-10T02:57:12.636Z,94952.01
2019-05-10T02:59:40.114Z,94957.30
2019-05-10T03:02:06.404Z,94952.69
2019-05-10T03:04:34.869Z,94961.31
2019-05-10T03:07:02.224Z,94964.94
2019-05-10T03:09:32.196Z,94966.78
2019-05-10T03:12:02.531Z,94972.00
2019-05-10T03:14:32.623Z,94971.50
2019-05-10T03:17:02.466Z,94981.61
2019-05-10T03:19:30.231Z,94985.10
2019-05-10T03:22:04.782Z,94986.11
2019-05-10T03:24:32.188Z,94989.42
2019-05-10T03:26:58.932Z,95002.97
2019-05-10T03:29:25.478Z,94998.83
2019-05-10T03:31:52.084Z,95001.95
2019-05-10T03:34:18.203Z,95004.59
2019-05-10T03:36:44.426Z,95010.19
2019-05-10T03:39:10.534Z,95008.37
2019-05-10T03:41:36.946Z,95008.25
2019-05-10T03:44:03.574Z,95022.42
2019-05-10T03:46:29.790Z,95013.19
2019-05-10T03:48:56.021Z,95015.83
2019-05-10T03:51:22.131Z,95020.62
2019-05-10T03:53:48.367Z,95017.85
2019-05-10T03:56:14.477Z,95025.61
2019-05-10T03:58:40.677Z,95025.48
2019-05-10T04:01:06.782Z,95030.58
2019-05-10T04:03:32.995Z,95029.45
2019-05-10T04:05:59.317Z,95036.28
2019-05-10T04:08:25.590Z,95036.15
2019-05-10T04:10:51.968Z,95037.05
2019-05-10T04:13:18.230Z,95032.03
2019-05-10T04:15:45.742Z,95043.88
2019-05-10T04:18:11.902Z,95045.43
2019-05-10T04:20:38.048Z,95048.48
2019-05-10T04:23:04.206Z,95047.41
2019-05-10T04:25:30.361Z,95051.19
2019-05-10T04:27:56.538Z,95052.84
2019-05-10T04:30:22.823Z,95051.95
2019-05-10T04:32:49.047Z,95053.61
2019-05-10T04:35:15.162Z,95054.29
2019-05-10T04:37:41.375Z,95059.11
2019-05-10T04:40:08.704Z,95065.09
2019-05-10T04:42:34.905Z,95060.30
2019-05-10T04:45:01.413Z,95065.45
2019-05-10T04:47:27.633Z,95068.47
2019-05-10T04:49:53.810Z,95073.56
2019-05-10T04:52:21.091Z,95071.72
2019-05-10T04:54:48.438Z,95075.55
2019-05-10T04:57:14.589Z,95086.79
2019-05-10T04:59:40.752Z,95085.65
2019-05-10T05:02:06.919Z,95085.52
2019-05-10T05:04:33.113Z,95089.79
2019-05-10T05:06:59.398Z,95096.03
2019-05-10T05:09:26.597Z,95098.67
2019-05-10T05:11:52.777Z,95100.52
2019-05-10T05:14:19.141Z,95100.95
2019-05-10T05:16:45.404Z,95107.19
2019-05-10T05:19:11.662Z,95108.33
2019-05-10T05:21:37.884Z,95112.75
2019-05-10T05:24:03.981Z,95112.75
2019-05-10T05:26:30.184Z,95116.22
2019-05-10T05:28:56.288Z,95126.27
2019-05-10T05:31:22.546Z,95113.89
2019-05-10T05:33:48.801Z,95122.64
2019-05-10T05:36:15.118Z,95131.00
2019-05-10T05:38:47.127Z,95129.86
2019-05-10T05:41:09.438Z,95135.15
2019-05-10T05:43:35.646Z,95133.57
2019-05-10T05:46:01.854Z,95139.16
2019-05-10T05:48:39.783Z,95142.29
2019-05-10T05:50:56.368Z,95143.13
2019-05-10T05:53:22.811Z,95143.61
2019-05-10T05:55:49.025Z,95150.38
2019-05-10T05:58:25.600Z,95157.41
2019-05-10T06:00:46.808Z,95164.98
2019-05-10T06:03:19.309Z,95164.80
2019-05-10T06:05:41.252Z,95171.73
2019-05-10T06:08:21.283Z,95168.32
2019-05-10T06:10:35.677Z,95168.32
2019-05-10T06:13:01.787Z,95168.98
2019-05-10T06:15:29.197Z,95171.14
2019-05-10T06:17:57.589Z,95175.00
2019-05-10T06:20:24.290Z,95177.44
2019-05-10T06:23:05.545Z,95173.73
2019-05-10T06:25:18.739Z,95178.10
2019-05-10T06:27:44.995Z,95179.16
2019-05-10T06:30:11.377Z,95183.37
2019-05-10T06:32:37.534Z,95184.11
2019-05-10T06:35:06.667Z,95187.05
2019-05-10T06:37:33.141Z,95186.36
2019-05-10T06:39:59.304Z,95191.36
2019-05-10T06:42:28.733Z,95189.53
2019-05-10T06:44:53.522Z,95194.14
2019-05-10T06:47:21.888Z,95196.48
2019-05-10T06:49:52.148Z,95193.89
2019-05-10T06:52:16.529Z,95196.50
2019-05-10T06:54:42.831Z,95197.00
2019-05-10T06:57:11.290Z,95196.50
2019-05-10T06:59:37.078Z,95189.25
2019-05-10T07:02:03.341Z,95201.91
2019-05-10T07:04:34.515Z,95192.45
2019-05-10T07:06:57.579Z,95193.20
2019-05-10T07:09:23.785Z,95191.87
2019-05-10T07:11:50.004Z,95188.17
2019-05-10T07:14:16.243Z,95196.72
2019-05-10T07:16:42.491Z,95192.63
2019-05-10T07:19:08.615Z,95192.00
2019-05-10T07:21:38.901Z,95192.35
2019-05-10T07:24:03.005Z,95187.47
2019-05-10T07:26:29.353Z,95191.81
2019-05-10T07:28:57.627Z,95194.47
2019-05-10T07:31:24.006Z,95201.38
2019-05-10T07:33:50.313Z,95194.52
2019-05-10T07:36:20.916Z,95196.89
2019-05-10T07:38:44.742Z,95201.42
2019-05-10T07:41:11.048Z,95192.79
2019-05-10T07:43:37.695Z,95202.84
2019-05-10T07:46:08.943Z,95203.61
2019-05-10T07:48:32.106Z,95202.48
2019-05-10T07:50:58.285Z,95195.30
2019-05-10T07:53:25.280Z,95206.34
2019-05-10T07:55:51.652Z,95199.31
2019-05-10T07:58:17.843Z,95200.61
2019-05-10T08:00:46.491Z,95210.55
2019-05-10T08:03:16.835Z,95210.07
2019-05-10T08:05:40.334Z,95200.81
2019-05-10T08:08:06.776Z,95219.27
2019-05-10T08:10:33.159Z,95219.54
2019-05-10T08:13:03.224Z,95224.65
2019-05-10T08:15:30.516Z,95231.47
2019-05-10T08:17:55.591Z,95230.30
2019-05-10T08:20:41.032Z,95219.51
2019-05-10T08:22:49.822Z,95227.62
2019-05-10T08:25:15.927Z,95235.01
2019-05-10T08:27:50.066Z,95231.51
2019-05-10T08:30:22.620Z,95233.97
2019-05-10T08:32:38.854Z,95238.79
2019-05-10T08:35:16.365Z,95243.59
2019-05-10T08:37:37.792Z,95243.56
2019-05-10T08:40:04.108Z,95249.94
2019-05-10T08:42:43.845Z,95244.70
2019-05-10T08:45:05.474Z,95246.98
2019-05-10T08:47:29.527Z,95250.41
2019-05-10T08:50:10.550Z,95250.28
2019-05-10T08:52:30.592Z,95252.02
2019-05-10T08:54:54.935Z,95252.58
2019-05-10T08:57:22.139Z,95251.35
2019-05-10T08:59:54.484Z,95264.40
2019-05-10T09:02:23.108Z,95264.90
2019-05-10T09:04:50.200Z,95258.86
2019-05-10T09:07:13.768Z,95271.27
2019-05-10T09:09:45.788Z,95274.98
2019-05-10T09:12:09.384Z,95275.93
2019-05-10T09:14:36.230Z,95272.59
2019-05-10T09:17:04.346Z,95283.58
2019-05-10T09:19:37.350Z,95277.75
2019-05-10T09:21:58.663Z,95278.74
2019-05-10T09:24:24.942Z,95284.48
2019-05-10T09:26:54.770Z,95281.61
2019-05-10T09:29:19.240Z,95293.31
2019-05-10T09:31:50.463Z,95288.69
2019-05-10T09:34:13.470Z,95299.58
2019-05-10T09:36:42.933Z,95290.47
2019-05-10T09:39:09.187Z,95296.09
2019-05-10T09:41:38.261Z,95301.94
2019-05-10T09:44:04.250Z,95298.91
2019-05-10T09:46:32.436Z,95288.35
2019-05-10T09:49:04.812Z,95303.97
2019-05-10T09:51:30.235Z,95317.19
2019-05-10T09:53:54.806Z,95309.62
2019-05-10T09:56:20.988Z,95317.11
2019-05-10T09:58:48.337Z,95319.97
2019-05-10T10:01:21.242Z,95323.94
2019-05-10T10:03:44.866Z,95318.94
2019-05-10T10:06:11.582Z,95319.74
2019-05-10T10:08:38.641Z,95323.11
2019-05-10T10:11:13.500Z,95328.66
2019-05-10T10:13:40.864Z,95331.09
2019-05-10T10:16:04.045Z,95328.81
2019-05-10T10:18:31.164Z,95334.52
2019-05-10T10:20:57.581Z,95326.33
2019-05-10T10:23:29.912Z,95331.89
2019-05-10T10:25:53.447Z,95332.30
2019-05-10T10:28:22.558Z,95332.62
2019-05-10T10:30:50.417Z,95333.92
2019-05-10T10:33:22.479Z,95333.16
2019-05-10T10:35:47.906Z,95330.99
2019-05-10T10:38:13.449Z,95327.47
2019-05-10T10:40:44.516Z,95337.51
2019-05-10T10:43:07.925Z,95335.20
2019-05-10T10:45:34.131Z,95333.60
2019-05-10T10:48:02.561Z,95332.58
2019-05-10T10:50:29.065Z,95336.14
2019-05-10T10:52:57.507Z,95338.02
2019-05-10T10:55:23.733Z,95325.79
2019-05-10T10:57:49.957Z,95344.64
2019-05-10T11:00:23.265Z,95352.41
2019-05-10T11:02:51.870Z,95352.09
2019-05-10T11:05:16.307Z,95352.17
2019-05-10T11:07:47.303Z,95352.37
2019-05-10T11:10:16.180Z,95365.66
2019-05-10T11:12:41.261Z,95362.52
2019-05-10T11:15:07.353Z,95364.84
2019-05-10T11:17:33.610Z,95361.09
2019-05-10T11:20:00.610Z,95368.94
2019-05-10T11:22:27.453Z,95366.73
2019-05-10T11:25:03.080Z,95368.03
2019-05-10T11:27:22.562Z,95365.55
2019-05-10T11:29:52.756Z,95364.77
2019-05-10T11:32:17.183Z,95359.94
2019-05-10T11:34:43.519Z,95361.88
2019-05-10T11:37:09.774Z,95369.44
2019-05-10T11:39:41.956Z,95369.20
2019-05-10T11:42:07.157Z,95363.16
2019-05-10T11:44:32.252Z,95375.63
2019-05-10T11:46:58.510Z,95368.91
2019-05-10T11:49:24.680Z,95375.17
2019-05-10T11:51:54.859Z,95375.51
2019-05-10T11:54:21.562Z,95372.13
2019-05-10T11:56:47.990Z,95383.36
2019-05-10T11:59:16.459Z,95378.08
2019-05-10T12:01:42.300Z,95369.00
2019-05-10T12:04:13.152Z,95382.73
2019-05-10T12:06:41.287Z,95380.33
2019-05-10T12:09:05.661Z,95382.99
2019-05-10T12:11:33.929Z,95386.66
2019-05-10T12:14:02.381Z,95381.16
2019-05-10T12:16:28.003Z,95388.47
2019-05-10T12:21:22.390Z,95396.69
2019-05-10T12:23:51.940Z,95404.19
2019-05-10T12:26:36.003Z,95382.18
2019-05-10T12:27:13.979Z,95400.91
2019-05-10T12:28:45.173Z,95407.30
2019-05-10T12:31:15.093Z,95409.74
2019-05-10T12:33:44.557Z,95409.91
2019-05-10T12:36:13.090Z,95404.03
2019-05-10T12:38:38.058Z,95409.51
2019-05-10T12:41:05.510Z,95407.48
2019-05-10T12:43:32.814Z,95419.28
2019-05-10T12:45:59.006Z,95413.00
2019-05-10T12:48:26.317Z,95409.45
2019-05-10T12:50:57.942Z,95403.64
2019-05-10T12:53:22.274Z,95412.46
2019-05-10T12:55:48.541Z,95408.70
2019-05-10T12:58:14.724Z,95405.31
2019-05-10T13:00:40.913Z,95407.64
2019-05-10T13:03:12.803Z,95415.64
2019-05-10T13:05:51.091Z,95418.41
2019-05-10T13:08:03.321Z,95414.69
2019-05-10T13:10:29.660Z,95420.74
2019-05-10T13:12:55.826Z,95424.27
2019-05-10T13:15:24.638Z,95426.33
2019-05-10T13:17:53.090Z,95431.52
2019-05-10T13:20:19.743Z,95429.00
2019-05-10T13:22:45.854Z,95443.19
2019-05-10T13:25:12.475Z,95434.56
2019-05-10T13:27:38.854Z,95431.12
2019-05-10T13:30:06.850Z,95440.88
2019-05-10T13:32:33.059Z,95441.98
2019-05-10T13:34:59.297Z,95448.35
2019-05-10T13:37:25.516Z,95448.09
2019-05-10T13:39:51.744Z,95442.55
2019-05-10T13:42:18.048Z,95439.19
2019-05-10T13:44:44.601Z,95446.52
2019-05-10T13:47:11.050Z,95447.94
2019-05-10T13:49:37.351Z,95451.46
2019-05-10T13:52:03.460Z,95451.23
2019-05-10T13:54:31.221Z,95456.58
2019-05-10T13:56:57.713Z,95466.19
2019-05-10T13:59:24.193Z,95469.44
2019-05-10T14:01:51.500Z,95472.55
2019-05-10T14:04:17.966Z,95465.37
2019-05-10T14:06:44.250Z,95472.30
2019-05-10T14:09:10.659Z,95464.38
2019-05-10T14:11:40.363Z,95472.04
2019-05-10T14:14:05.104Z,95472.02
2019-05-10T14:16:31.263Z,95465.58
2019-05-10T14:18:57.405Z,95468.32
2019-05-10T14:21:23.814Z,95468.95
2019-05-10T14:23:49.966Z,95465.33
2019-05-10T14:26:18.236Z,95466.16
2019-05-10T14:28:47.385Z,95467.25
2019-05-10T14:31:12.497Z,95463.38
2019-05-10T14:33:38.736Z,95469.30
2019-05-10T14:36:04.890Z,95478.14
2019-05-10T14:38:31.088Z,95478.96
2019-05-10T14:40:57.274Z,95474.67
2019-05-10T14:43:23.527Z,95473.63
2019-05-10T14:45:49.642Z,95472.30
2019-05-10T14:48:15.865Z,95470.83
2019-05-10T14:50:46.195Z,95475.83
2019-05-10T14:53:10.269Z,95471.74
2019-05-10T14:55:36.996Z,95472.91
2019-05-10T14:58:03.531Z,95473.77
2019-05-10T15:00:29.772Z,95471.80
2019-05-10T15:02:56.693Z,95473.09
2019-05-10T15:05:24.218Z,95477.14
2019-05-10T15:07:51.224Z,95485.70
2019-05-10T15:10:17.803Z,95490.97
2019-05-10T15:12:43.980Z,95499.02
2019-05-10T15:15:10.701Z,95501.12
2019-05-10T15:17:36.813Z,95482.56
2019-05-10T15:20:05.677Z,95488.42
2019-05-10T15:22:31.792Z,95488.70
2019-05-10T15:24:58.062Z,95489.76
2019-05-10T15:27:24.202Z,95490.16
2019-05-10T15:29:50.408Z,95484.23
2019-05-10T15:32:16.522Z,95490.59
2019-05-10T15:34:42.784Z,95487.33
2019-05-10T15:37:10.575Z,95484.14
2019-05-10T15:39:37.012Z,95480.57
2019-05-10T15:42:03.383Z,95481.39
2019-05-10T15:44:31.390Z,95489.21
2019-05-10T15:46:57.748Z,95487.55
2019-05-10T15:49:25.062Z,95484.81
2019-05-10T15:51:56.850Z,95483.98
2019-05-10T15:54:19.272Z,95485.50
2019-05-10T15:56:45.541Z,95485.80
2019-05-10T15:59:12.924Z,95491.56
2019-05-10T16:01:39.913Z,95489.33
2019-05-10T16:04:06.173Z,95498.70
2019-05-10T16:06:37.558Z,95498.67
2019-05-10T16:09:02.810Z,95500.94
2019-05-10T16:11:29.812Z,95497.39
2019-05-10T16:14:00.121Z,95503.02
2019-05-10T16:16:24.363Z,95498.85
2019-05-10T16:18:50.529Z,95500.48
2019-05-10T16:21:16.903Z,95501.31
2019-05-10T16:23:46.807Z,95500.97
2019-05-10T16:26:11.808Z,95507.09
2019-05-10T16:28:38.009Z,95505.83
2019-05-10T16:31:04.388Z,95512.79
2019-05-10T16:33:30.626Z,95511.87
2019-05-10T16:35:56.874Z,95514.75
2019-05-10T16:38:23.269Z,95520.59
2019-05-10T16:40:58.348Z,95518.17
2019-05-10T16:43:23.867Z,95518.80
2019-05-10T16:45:46.488Z,95523.45
2019-05-10T16:48:12.639Z,95529.91
2019-05-10T16:50:38.843Z,95532.50
2019-05-10T16:53:07.973Z,95532.06
2019-05-10T16:55:35.679Z,95530.03
2019-05-10T16:58:01.651Z,95541.05
2019-05-10T17:00:28.124Z,95534.28
2019-05-10T17:02:54.284Z,95541.52
2019-05-10T17:05:20.552Z,95543.95
2019-05-10T17:07:46.718Z,95541.67
2019-05-10T17:10:13.223Z,95540.30
2019-05-10T17:12:39.418Z,95547.88
2019-05-10T17:15:05.773Z,95542.77
2019-05-10T17:17:37.091Z,95542.77
2019-05-10T17:20:00.701Z,95540.41
2019-05-10T17:22:26.959Z,95536.91
2019-05-10T17:24:56.763Z,95544.75
2019-05-10T17:27:21.416Z,95545.09
2019-05-10T17:29:49.826Z,95538.94
2019-05-10T17:32:18.533Z,95531.89
2019-05-10T17:34:44.057Z,95533.85
2019-05-10T17:37:11.281Z,95528.73
2019-05-10T17:39:37.479Z,95541.80
2019-05-10T17:42:05.049Z,95539.64
2019-05-10T17:44:31.418Z,95549.27
2019-05-10T17:46:57.634Z,95553.56
2019-05-10T17:49:23.975Z,95556.42
2019-05-10T17:51:50.345Z,95554.88
2019-05-10T17:54:17.636Z,95557.20
2019-05-10T17:56:44.042Z,95556.23
2019-05-10T17:59:12.030Z,95563.66
2019-05-10T18:01:38.711Z,95564.83
2019-05-10T18:04:05.005Z,95563.64
2019-05-10T18:06:31.176Z,95564.78
2019-05-10T18:08:57.476Z,95565.45
2019-05-10T18:11:23.877Z,95567.14
2019-05-10T18:13:50.163Z,95567.66
2019-05-10T18:16:17.397Z,95564.56
2019-05-10T18:18:47.192Z,95565.48
2019-05-10T18:21:15.739Z,95577.63
2019-05-10T18:23:40.041Z,95580.65
2019-05-10T18:26:06.327Z,95581.52
2019-05-10T18:28:32.537Z,95581.84
2019-05-10T18:30:58.715Z,95579.97
2019-05-10T18:33:26.154Z,95588.36
2019-05-10T18:35:54.504Z,95586.94
2019-05-10T18:38:20.423Z,95588.91
2019-05-10T18:40:46.695Z,95581.01
2019-05-10T18:43:13.025Z,95585.72
2019-05-10T18:45:39.210Z,95580.00
2019-05-10T18:48:05.479Z,95595.04
2019-05-10T18:50:31.628Z,95589.54
2019-05-10T18:52:57.866Z,95586.64
2019-05-10T18:55:24.252Z,95586.66
2019-05-10T18:57:52.588Z,95586.52
2019-05-10T19:00:23.225Z,95589.73
2019-05-10T19:02:49.654Z,95594.42
2019-05-10T19:05:15.928Z,95601.25
2019-05-10T19:07:42.333Z,95605.66
2019-05-10T19:10:08.958Z,95607.12
2019-05-10T19:12:35.894Z,95609.14
2019-05-10T19:15:08.999Z,95611.34
2019-05-10T19:17:33.514Z,95613.53
2019-05-10T19:19:59.816Z,95616.56
2019-05-10T19:22:27.095Z,95618.38
2019-05-10T19:24:56.697Z,95615.45
2019-05-10T19:27:24.881Z,95619.77
2019-05-10T19:29:50.531Z,95620.78
2019-05-10T19:32:18.030Z,95625.75
2019-05-10T19:34:48.281Z,95626.37
2019-05-10T19:37:26.853Z,95628.22
2019-05-10T19:39:40.996Z,95626.20
2019-05-10T19:42:07.313Z,95630.94
2019-05-10T19:44:34.803Z,95628.95
2019-05-10T19:47:01.952Z,95628.26
2019-05-10T19:49:28.143Z,95627.21
2019-05-10T19:51:54.496Z,95633.92
2019-05-10T19:54:21.321Z,95637.85
2019-05-10T19:56:47.776Z,95629.38
2019-05-10T19:59:13.884Z,95629.70
2019-05-10T20:01:40.222Z,95636.00
2019-05-10T20:04:09.352Z,95630.04
2019-05-10T20:06:34.429Z,95644.91
2019-05-10T20:09:00.619Z,95639.93
2019-05-10T20:11:27.043Z,95644.59
2019-05-10T20:13:53.199Z,95654.84
2019-05-10T20:16:19.431Z,95686.06
2019-05-10T20:18:45.728Z,95684.33
2019-05-10T20:21:11.978Z,95698.66
2019-05-10T20:23:38.221Z,95705.86
2019-05-10T20:26:04.385Z,95709.56
2019-05-10T20:28:30.608Z,95714.40
2019-05-10T20:30:56.720Z,95721.18
2019-05-10T20:33:22.937Z,95719.36
2019-05-10T20:35:49.047Z,95720.20
2019-05-10T20:38:15.377Z,95723.82
2019-05-10T20:40:41.532Z,95719.88
2019-05-10T20:43:07.748Z,95711.47
2019-05-10T20:45:34.096Z,95703.02
2019-05-10T20:48:00.318Z,95697.91
2019-05-10T20:50:26.431Z,95673.13
2019-05-10T20:52:55.875Z,95662.77
2019-05-10T20:55:22.002Z,95654.35
2019-05-10T20:57:48.224Z,95646.93
2019-05-10T21:00:14.651Z,95642.32
2019-05-10T21:02:40.882Z,95633.58
2019-05-10T21:05:07.815Z,95638.55
2019-05-10T21:07:34.043Z,95659.03
2019-05-10T21:10:00.283Z,95663.64
2019-05-10T21:12:26.603Z,95669.91
2019-05-10T21:14:52.743Z,95678.48
2019-05-10T21:17:18.983Z,95691.84
2019-05-10T21:19:45.160Z,95696.46
2019-05-10T21:22:11.452Z,95685.25
2019-05-10T21:24:37.665Z,95683.77
2019-05-10T21:27:03.955Z,95683.59
2019-05-10T21:29:30.153Z,95677.16
2019-05-10T21:31:56.327Z,95677.66
2019-05-10T21:34:22.486Z,95669.07
2019-05-10T21:36:48.715Z,95659.98
2019-05-10T21:39:15.867Z,95669.54
2019-05-10T21:41:42.038Z,95667.91
2019-05-10T21:44:08.210Z,95669.35
2019-05-10T21:46:35.285Z,95671.31
2019-05-10T21:49:01.390Z,95673.56
2019-05-10T21:51:27.624Z,95672.41
2019-05-10T21:53:53.747Z,95675.84
2019-05-10T21:56:19.957Z,95662.50
2019-05-10T21:58:46.130Z,95669.41
2019-05-10T22:01:12.476Z,95678.27
2019-05-10T22:03:38.830Z,95689.13
2019-05-10T22:06:05.000Z,95694.03
2019-05-10T22:08:31.266Z,95699.97
2019-05-10T22:10:57.642Z,95697.13
2019-05-10T22:13:23.987Z,95702.23
2019-05-10T22:15:50.296Z,95695.81
2019-05-10T22:18:16.450Z,95699.42
2019-05-10T22:20:42.630Z,95693.31
2019-05-10T22:23:08.799Z,95697.77
2019-05-10T22:25:35.025Z,95696.17
2019-05-10T22:28:01.252Z,95695.70
2019-05-10T22:30:27.575Z,95699.98
2019-05-10T22:32:53.887Z,95700.97
2019-05-10T22:35:20.012Z,95707.72
2019-05-10T22:37:46.235Z,95708.83
2019-05-10T22:40:12.685Z,95706.36
2019-05-10T22:42:38.944Z,95705.86
2019-05-10T22:45:05.357Z,95713.24
2019-05-10T22:47:31.465Z,95719.81
2019-05-10T22:49:57.776Z,95708.75
2019-05-10T22:52:24.034Z,95703.32
2019-05-10T22:54:50.271Z,95700.67
2019-05-10T22:57:16.443Z,95712.00
2019-05-10T22:59:42.700Z,95717.58
2019-05-10T23:02:08.971Z,95715.41
2019-05-10T23:04:35.181Z,95718.52
2019-05-10T23:07:01.292Z,95725.25
2019-05-10T23:09:27.508Z,95725.77
2019-05-10T23:11:53.672Z,95727.41
2019-05-10T23:14:19.954Z,95727.12
2019-05-10T23:16:46.234Z,95718.42
2019-05-10T23:19:12.491Z,95708.27
2019-05-10T23:21:38.711Z,95703.00
2019-05-10T23:24:07.512Z,95694.64
2019-05-10T23:26:34.719Z,95686.75
2019-05-10T23:29:00.818Z,95691.38
2019-05-10T23:31:27.013Z,95688.74
2019-05-10T23:33:53.114Z,95687.75
2019-05-10T23:36:19.353Z,95676.73
2019-05-10T23:38:45.851Z,95683.80
2019-05-10T23:41:12.089Z,95688.23
2019-05-10T23:43:38.195Z,95682.80
2019-05-10T23:46:05.404Z,95677.84
2019-05-10T23:48:31.549Z,95680.78
2019-05-10T23:50:57.799Z,95673.40
2019-05-10T23:53:24.099Z,95666.30
2019-05-10T23:55:50.375Z,95663.02
2019-05-10T23:58:16.678Z,95668.28
